createdAt,value
2023-03-25T00:01:27.521Z,54.58
2023-03-25T00:03:57.146Z,49.42
2023-03-25T00:06:26.965Z,39.05
2023-03-25T00:08:57.394Z,45.60
2023-03-25T00:11:27.123Z,40.33
2023-03-25T00:13:56.754Z,50.05
2023-03-25T00:16:26.429Z,54.47
2023-03-25T00:18:56.124Z,52.75
2023-03-25T00:21:25.717Z,44.00
2023-03-25T00:23:55.297Z,57.95
2023-03-25T00:26:24.931Z,53.42
2023-03-25T00:28:54.550Z,66.55
2023-03-25T00:31:24.205Z,48.00
2023-03-25T00:33:54.054Z,49.03
2023-03-25T00:36:23.622Z,53.97
2023-03-25T00:38:53.281Z,55.70
2023-03-25T00:41:29.696Z,49.55
2023-03-25T00:44:01.814Z,68.55
2023-03-25T00:46:33.836Z,63.78
2023-03-25T00:49:04.127Z,64.07
2023-03-25T00:51:35.327Z,53.50
2023-03-25T00:54:23.722Z,46.80
2023-03-25T00:56:55.303Z,59.78
2023-03-25T00:59:25.068Z,55.70
2023-03-25T01:01:54.753Z,52.47
2023-03-25T01:04:24.368Z,66.32
2023-03-25T01:06:55.140Z,53.63
2023-03-25T01:09:24.955Z,60.50
2023-03-25T01:11:54.538Z,69.90
2023-03-25T01:14:31.062Z,52.47
2023-03-25T01:17:01.866Z,71.28
2023-03-25T01:19:31.426Z,60.28
2023-03-25T01:22:01.334Z,46.95
2023-03-25T01:24:30.978Z,61.33
2023-03-25T01:27:00.886Z,61.92
2023-03-25T01:29:30.605Z,58.03
2023-03-25T01:32:00.262Z,59.05
2023-03-25T01:34:30.157Z,58.83
2023-03-25T01:36:59.776Z,59.78
2023-03-25T01:39:29.428Z,68.72
2023-03-25T01:41:59.080Z,60.25
2023-03-25T01:44:30.732Z,52.65
2023-03-25T01:47:05.377Z,49.42
2023-03-25T01:49:46.210Z,68.68
2023-03-25T01:52:20.273Z,65.07
2023-03-25T01:54:53.024Z,64.65
2023-03-25T01:57:25.736Z,80.00
2023-03-25T01:59:57.535Z,40.70
2023-03-25T02:02:36.350Z,59.33
2023-03-25T02:05:27.938Z,63.80
2023-03-25T02:07:59.485Z,72.18
2023-03-25T02:10:29.149Z,51.03
2023-03-25T02:12:59.086Z,60.85
2023-03-25T02:15:33.636Z,61.33
2023-03-25T02:21:12.357Z,56.05
2023-03-25T02:23:50.654Z,45.72
2023-03-25T02:26:43.528Z,48.47
2023-03-25T02:29:31.525Z,65.35
2023-03-25T02:33:00.837Z,57.03
2023-03-25T02:36:03.781Z,37.92
2023-03-25T02:38:38.361Z,72.88
2023-03-25T02:41:25.513Z,59.80
2023-03-25T02:44:35.855Z,51.30
2023-03-25T02:47:11.248Z,65.95
2023-03-25T02:49:46.966Z,70.05
2023-03-25T02:52:26.447Z,76.40
2023-03-25T02:55:03.365Z,79.38
2023-03-25T02:57:36.803Z,66.47
2023-03-25T03:00:17.309Z,61.40
2023-03-25T03:03:12.962Z,63.00
2023-03-25T03:05:53.027Z,48.35
2023-03-25T03:08:35.156Z,62.13
2023-03-25T03:11:16.861Z,80.15
2023-03-25T03:14:11.965Z,63.25
2023-03-25T03:16:59.979Z,58.42
2023-03-25T03:19:39.698Z,79.07
2023-03-25T03:22:38.004Z,63.10
2023-03-25T03:25:13.912Z,61.03
2023-03-25T03:27:55.824Z,81.78
2023-03-25T03:30:50.192Z,64.00
2023-03-25T03:33:31.783Z,54.83
2023-03-25T03:36:11.322Z,70.75
2023-03-25T03:38:49.412Z,62.58
2023-03-25T03:41:23.472Z,65.88
2023-03-25T03:44:24.976Z,63.03
2023-03-25T03:47:26.146Z,62.97
2023-03-25T03:50:10.742Z,67.03
2023-03-25T03:52:55.861Z,63.92
2023-03-25T03:55:33.333Z,63.70
2023-03-25T03:58:11.117Z,57.65
2023-03-25T04:01:06.734Z,61.58
2023-03-25T04:03:58.108Z,62.58
2023-03-25T04:06:30.600Z,61.75
2023-03-25T04:09:10.500Z,62.42
2023-03-25T04:11:49.213Z,55.75
2023-03-25T04:14:19.361Z,70.70
2023-03-25T04:16:49.191Z,56.28
2023-03-25T04:19:19.929Z,59.17
2023-03-25T04:21:50.561Z,57.33
2023-03-25T04:24:21.136Z,59.00
2023-03-25T04:26:51.199Z,71.95
2023-03-25T04:29:20.793Z,61.53
2023-03-25T04:31:51.389Z,67.28
2023-03-25T04:34:22.004Z,73.15
2023-03-25T04:36:52.405Z,62.80
2023-03-25T04:39:25.709Z,56.55
2023-03-25T04:41:55.980Z,80.28
2023-03-25T04:44:27.446Z,55.50
2023-03-25T04:46:58.000Z,57.25
2023-03-25T04:49:28.125Z,79.93
2023-03-25T04:51:58.537Z,57.85
2023-03-25T04:54:28.226Z,62.53
2023-03-25T04:56:58.708Z,57.25
2023-03-25T04:59:28.647Z,69.78
2023-03-25T05:01:58.641Z,55.45
2023-03-25T05:04:28.259Z,56.38
2023-03-25T05:06:58.424Z,58.75
2023-03-25T05:09:28.081Z,62.03
2023-03-25T05:11:57.904Z,63.00
2023-03-25T05:14:27.616Z,59.72
2023-03-25T05:16:58.963Z,39.60
2023-03-25T05:19:30.288Z,43.10
2023-03-25T05:21:59.841Z,50.92
2023-03-25T05:24:30.027Z,55.67
2023-03-25T05:26:59.593Z,58.40
2023-03-25T05:29:29.242Z,45.58
2023-03-25T05:31:58.853Z,62.85
2023-03-25T05:34:32.550Z,53.05
2023-03-25T05:39:31.117Z,45.90
2023-03-25T05:42:04.405Z,57.88
2023-03-25T05:44:34.000Z,46.42
2023-03-25T05:47:03.593Z,50.60
2023-03-25T05:49:33.457Z,53.22
2023-03-25T05:52:03.929Z,45.60
2023-03-25T05:54:33.544Z,59.05
2023-03-25T05:57:03.131Z,47.95
2023-03-25T05:59:32.868Z,51.53
2023-03-25T06:02:02.609Z,53.92
2023-03-25T06:04:35.493Z,56.67
2023-03-25T06:07:05.269Z,54.65
2023-03-25T06:09:36.654Z,53.00
2023-03-25T06:12:06.725Z,60.75
2023-03-25T06:14:36.285Z,50.88
2023-03-25T06:17:07.061Z,48.17
2023-03-25T06:19:40.533Z,42.70
2023-03-25T06:22:12.572Z,47.40
2023-03-25T06:24:42.892Z,45.97
2023-03-25T06:27:19.173Z,46.15
2023-03-25T06:29:50.161Z,52.60
2023-03-25T06:32:19.802Z,50.47
2023-03-25T06:34:49.436Z,52.03
2023-03-25T06:37:19.011Z,54.78
2023-03-25T06:39:51.273Z,44.58
2023-03-25T06:42:20.871Z,51.40
2023-03-25T06:44:50.434Z,49.20
2023-03-25T06:47:20.612Z,43.72
2023-03-25T06:49:50.416Z,47.10
2023-03-25T06:52:20.043Z,48.67
2023-03-25T06:54:49.679Z,44.60
2023-03-25T06:57:19.291Z,68.20
2023-03-25T06:59:49.903Z,44.80
2023-03-25T07:02:19.551Z,51.65
2023-03-25T07:04:49.254Z,56.08
2023-03-25T07:07:18.883Z,35.55
2023-03-25T07:09:52.566Z,54.33
2023-03-25T07:15:01.279Z,44.78
2023-03-25T07:17:30.833Z,37.03
2023-03-25T07:20:00.410Z,45.05
2023-03-25T07:22:30.068Z,48.72
2023-03-25T07:25:00.204Z,60.28
2023-03-25T07:27:29.928Z,61.22
2023-03-25T07:29:59.484Z,51.53
2023-03-25T07:32:29.083Z,56.80
2023-03-25T07:34:58.771Z,50.88
2023-03-25T07:37:28.468Z,48.53
2023-03-25T07:39:58.067Z,52.22
2023-03-25T07:42:27.752Z,45.88
2023-03-25T07:44:57.396Z,48.03
2023-03-25T07:47:27.053Z,54.67
2023-03-25T07:49:56.654Z,35.28
2023-03-25T07:52:26.265Z,38.35
2023-03-25T07:54:55.809Z,55.40
2023-03-25T07:57:25.352Z,52.50
2023-03-25T07:59:54.970Z,53.25
2023-03-25T08:02:24.700Z,67.40
2023-03-25T08:04:56.509Z,45.85
2023-03-25T08:07:26.342Z,50.95
2023-03-25T08:09:56.171Z,64.82
2023-03-25T08:12:25.753Z,60.45
2023-03-25T08:14:55.384Z,57.72
2023-03-25T08:17:25.538Z,48.50
2023-03-25T08:19:55.149Z,57.13
2023-03-25T08:22:24.744Z,36.78
2023-03-25T08:24:54.348Z,47.88
2023-03-25T08:27:23.996Z,41.67
2023-03-25T08:29:58.880Z,63.70
2023-03-25T08:32:29.806Z,62.38
2023-03-25T08:34:59.570Z,68.53
2023-03-25T08:37:29.181Z,67.65
2023-03-25T08:39:59.647Z,68.55
2023-03-25T08:42:29.265Z,73.30
2023-03-25T08:44:58.872Z,65.38
2023-03-25T08:47:28.566Z,61.67
2023-03-25T08:49:58.178Z,66.70
2023-03-25T08:52:27.890Z,86.40
2023-03-25T08:54:57.460Z,76.93
2023-03-25T08:57:27.118Z,55.05
2023-03-25T08:59:56.762Z,58.28
2023-03-25T09:02:26.428Z,74.22
2023-03-25T09:04:56.141Z,53.17
2023-03-25T09:07:25.769Z,65.15
2023-03-25T09:09:55.339Z,83.15
2023-03-25T09:12:25.121Z,57.13
2023-03-25T09:14:54.681Z,68.05
2023-03-25T09:17:24.354Z,75.32
2023-03-25T09:19:54.506Z,69.38
2023-03-25T09:22:25.100Z,65.63
2023-03-25T09:24:54.724Z,72.18
2023-03-25T09:27:24.314Z,78.03
2023-03-25T09:29:54.023Z,79.47
2023-03-25T09:32:23.637Z,64.32
2023-03-25T09:34:53.503Z,60.63
2023-03-25T09:37:23.105Z,60.95
2023-03-25T09:39:52.739Z,63.30
2023-03-25T09:42:46.755Z,66.32
2023-03-25T09:45:39.538Z,47.78
2023-03-25T09:48:29.546Z,80.07
2023-03-25T09:51:30.394Z,77.53
2023-03-25T09:54:27.577Z,57.30
2023-03-25T09:57:14.231Z,63.65
2023-03-25T09:59:54.486Z,55.67
2023-03-25T10:02:41.270Z,52.90
2023-03-25T10:05:51.282Z,58.80
2023-03-25T10:08:57.260Z,63.90
2023-03-25T10:11:44.859Z,51.35
2023-03-25T10:14:22.120Z,51.10
2023-03-25T10:17:12.880Z,46.97
2023-03-25T10:20:18.867Z,53.60
2023-03-25T10:23:00.390Z,49.63
2023-03-25T10:25:33.165Z,65.78
2023-03-25T10:28:04.703Z,45.00
2023-03-25T10:30:40.790Z,50.92
2023-03-25T10:33:43.064Z,54.15
2023-03-25T10:36:23.628Z,45.97
2023-03-25T10:38:57.094Z,50.90
2023-03-25T10:41:37.031Z,50.28
2023-03-25T10:44:14.066Z,45.05
2023-03-25T10:47:00.473Z,64.75
2023-03-25T10:49:33.278Z,67.00
2023-03-25T10:52:04.035Z,51.03
2023-03-25T10:54:47.669Z,52.47
2023-03-25T10:57:31.130Z,55.63
2023-03-25T11:00:07.929Z,56.88
2023-03-25T11:02:37.698Z,62.13
2023-03-25T11:05:09.554Z,57.97
2023-03-25T11:07:43.205Z,53.08
2023-03-25T11:10:26.230Z,61.85
2023-03-25T11:12:59.894Z,87.75
2023-03-25T11:18:19.421Z,73.20
2023-03-25T11:20:57.570Z,67.78
2023-03-25T11:24:00.531Z,57.58
2023-03-25T11:26:40.429Z,61.30
2023-03-25T11:29:12.306Z,74.10
2023-03-25T11:31:44.696Z,69.10
2023-03-25T11:34:23.996Z,58.90
2023-03-25T11:37:02.363Z,60.38
2023-03-25T11:39:41.908Z,79.20
2023-03-25T11:42:50.984Z,69.30
2023-03-25T11:45:28.600Z,64.05
2023-03-25T11:48:13.021Z,66.10
2023-03-25T11:50:53.672Z,68.40
2023-03-25T11:53:27.503Z,70.63
2023-03-25T11:56:06.128Z,77.20
2023-03-25T11:58:39.453Z,76.22
2023-03-25T12:01:32.244Z,70.75
2023-03-25T12:04:16.609Z,67.18
2023-03-25T12:07:11.154Z,84.50
2023-03-25T12:09:55.068Z,66.85
2023-03-25T12:15:06.812Z,55.28
2023-03-25T12:17:48.371Z,78.95
2023-03-25T12:20:30.158Z,79.07
2023-03-25T12:23:04.902Z,85.60
2023-03-25T12:25:56.743Z,76.68
2023-03-25T12:28:31.079Z,69.72
2023-03-25T12:31:06.784Z,68.13
2023-03-25T12:34:07.244Z,67.28
2023-03-25T12:36:36.768Z,64.65
2023-03-25T12:39:39.509Z,62.75
2023-03-25T12:42:42.784Z,73.68
2023-03-25T12:45:35.424Z,45.50
2023-03-25T12:48:29.275Z,60.90
2023-03-25T12:51:23.511Z,42.78
2023-03-25T12:57:14.862Z,52.83
2023-03-25T13:00:18.067Z,70.95
2023-03-25T13:03:19.614Z,61.20
2023-03-25T13:06:01.257Z,64.85
2023-03-25T13:08:33.097Z,71.88
2023-03-25T13:11:17.721Z,59.88
2023-03-25T13:13:52.704Z,47.72
2023-03-25T13:16:27.462Z,51.53
2023-03-25T13:19:03.542Z,43.65
2023-03-25T13:21:39.660Z,57.03
2023-03-25T13:24:42.015Z,54.38
2023-03-25T13:27:15.685Z,41.30
2023-03-25T13:32:29.035Z,51.22
2023-03-25T13:35:15.995Z,59.90
2023-03-25T13:37:54.930Z,39.08
2023-03-25T13:40:49.188Z,36.25
2023-03-25T13:43:57.451Z,49.47
2023-03-25T13:46:50.791Z,36.65
2023-03-25T13:49:35.241Z,35.47
2023-03-25T13:52:05.206Z,36.58
2023-03-25T13:54:45.251Z,45.15
2023-03-25T13:57:48.168Z,47.17
2023-03-25T14:00:54.267Z,46.00
2023-03-25T14:03:48.164Z,57.05
2023-03-25T14:06:41.773Z,51.05
2023-03-25T14:10:02.164Z,36.33
2023-03-25T14:12:48.644Z,53.58
2023-03-25T14:15:41.581Z,61.58
2023-03-25T14:18:20.505Z,34.08
2023-03-25T14:20:52.164Z,46.58
2023-03-25T14:23:24.608Z,51.20
2023-03-25T14:26:00.922Z,50.75
2023-03-25T14:28:45.229Z,47.70
2023-03-25T14:31:30.751Z,61.60
2023-03-25T14:34:06.413Z,37.35
2023-03-25T14:36:42.355Z,54.15
2023-03-25T14:39:32.432Z,35.75
2023-03-25T14:42:14.754Z,37.10
2023-03-25T14:44:55.710Z,44.05
2023-03-25T14:47:29.143Z,39.35
2023-03-25T14:50:06.328Z,43.78
2023-03-25T14:52:46.447Z,40.20
2023-03-25T14:55:35.747Z,49.40
2023-03-25T14:58:27.836Z,38.85
2023-03-25T15:01:11.753Z,38.88
2023-03-25T15:09:02.448Z,33.55
2023-03-25T15:11:37.861Z,31.77
2023-03-25T15:14:21.196Z,45.00
2023-03-25T15:16:51.339Z,32.45
2023-03-25T15:19:22.534Z,60.72
2023-03-25T15:22:04.434Z,47.03
2023-03-25T15:24:36.387Z,45.15
2023-03-25T15:27:14.187Z,42.78
2023-03-25T15:29:55.692Z,35.72
2023-03-25T15:32:44.432Z,41.10
2023-03-25T15:35:49.049Z,26.88
2023-03-25T15:41:23.927Z,42.53
2023-03-25T15:44:19.824Z,27.48
2023-03-25T15:47:20.026Z,48.83
2023-03-25T15:50:04.933Z,45.95
2023-03-25T15:52:55.671Z,55.72
2023-03-25T15:55:47.405Z,40.42
2023-03-25T15:58:33.345Z,52.72
2023-03-25T16:01:16.855Z,59.40
2023-03-25T16:03:47.784Z,44.28
2023-03-25T16:06:19.838Z,54.17
2023-03-25T16:08:52.172Z,37.85
2023-03-25T16:11:22.156Z,32.92
2023-03-25T16:14:20.148Z,41.13
2023-03-25T16:16:56.296Z,35.90
2023-03-25T16:19:34.283Z,41.95
2023-03-25T16:22:09.829Z,35.30
2023-03-25T16:24:39.487Z,37.20
2023-03-25T16:27:22.679Z,50.47
2023-03-25T16:29:55.205Z,52.10
2023-03-25T16:32:28.858Z,56.92
2023-03-25T16:37:30.043Z,60.83
2023-03-25T16:40:00.750Z,45.85
2023-03-25T16:42:38.802Z,35.50
2023-03-25T16:45:10.656Z,53.70
2023-03-25T16:47:40.357Z,50.38
2023-03-25T16:50:20.381Z,31.25
2023-03-25T16:52:50.512Z,62.67
2023-03-25T16:55:33.479Z,34.05
2023-03-25T16:58:04.508Z,42.33
2023-03-25T17:00:44.744Z,50.85
2023-03-25T17:03:22.803Z,50.38
2023-03-25T17:05:58.397Z,39.70
2023-03-25T17:08:29.362Z,35.20
2023-03-25T17:11:01.784Z,42.10
2023-03-25T17:13:37.828Z,30.92
2023-03-25T17:16:09.930Z,46.05
2023-03-25T17:18:41.921Z,35.55
2023-03-25T17:21:22.468Z,31.00
2023-03-25T17:23:52.204Z,45.35
2023-03-25T17:26:24.930Z,33.75
2023-03-25T17:29:01.357Z,36.03
2023-03-25T17:31:37.876Z,49.25
2023-03-25T17:34:17.012Z,45.72
2023-03-25T17:36:51.303Z,55.63
2023-03-25T17:39:31.328Z,53.20
2023-03-25T17:42:06.743Z,36.25
2023-03-25T17:44:45.709Z,35.50
2023-03-25T17:47:17.861Z,59.97
2023-03-25T17:49:47.677Z,52.42
2023-03-25T17:52:17.298Z,58.22
2023-03-25T17:54:46.857Z,46.95
2023-03-25T17:57:21.610Z,41.13
2023-03-25T17:59:52.625Z,55.58
2023-03-25T18:02:22.257Z,48.25
2023-03-25T18:04:52.079Z,51.85
2023-03-25T18:07:22.899Z,42.55
2023-03-25T18:09:53.768Z,45.63
2023-03-25T18:12:23.352Z,22.95
2023-03-25T18:14:53.027Z,65.63
2023-03-25T18:17:22.723Z,53.90
2023-03-25T18:19:52.409Z,51.08
2023-03-25T18:22:22.799Z,54.08
2023-03-25T18:24:52.941Z,48.90
2023-03-25T18:27:33.289Z,48.58
2023-03-25T18:30:30.595Z,42.20
2023-03-25T18:33:00.344Z,46.40
2023-03-25T18:35:30.049Z,48.38
2023-03-25T18:38:00.198Z,38.83
2023-03-25T18:40:36.735Z,51.30
2023-03-25T18:43:06.426Z,41.33
2023-03-25T18:45:37.003Z,54.20
2023-03-25T18:48:07.715Z,40.65
2023-03-25T18:50:40.228Z,57.80
2023-03-25T18:53:09.920Z,43.22
2023-03-25T18:55:39.540Z,49.45
2023-03-25T18:58:10.890Z,44.38
2023-03-25T19:00:42.846Z,39.77
2023-03-25T19:03:12.791Z,40.58
2023-03-25T19:05:42.697Z,47.92
2023-03-25T19:08:19.733Z,48.78
2023-03-25T19:10:50.551Z,42.47
2023-03-25T19:13:20.586Z,43.60
2023-03-25T19:15:50.124Z,47.35
2023-03-25T19:18:29.336Z,47.88
2023-03-25T19:20:58.993Z,55.83
2023-03-25T19:23:29.204Z,32.22
2023-03-25T19:26:01.179Z,48.60
2023-03-25T19:28:31.075Z,46.65
2023-03-25T19:31:03.077Z,34.88
2023-03-25T19:33:33.192Z,52.58
2023-03-25T19:36:05.710Z,42.58
2023-03-25T19:38:35.563Z,43.45
2023-03-25T19:41:08.481Z,51.78
2023-03-25T19:43:38.478Z,41.00
2023-03-25T19:46:08.783Z,32.65
2023-03-25T19:48:38.786Z,45.30
2023-03-25T19:51:08.644Z,43.60
2023-03-25T19:53:38.268Z,45.45
2023-03-25T19:56:08.748Z,46.10
2023-03-25T19:58:38.303Z,44.75
2023-03-25T20:01:08.381Z,28.77
2023-03-25T20:03:39.955Z,32.10
2023-03-25T20:06:10.398Z,42.42
2023-03-25T20:08:40.028Z,30.67
2023-03-25T20:11:13.423Z,35.13
2023-03-25T20:13:43.115Z,39.45
2023-03-25T20:16:13.239Z,39.22
2023-03-25T20:18:43.144Z,38.40
2023-03-25T20:21:13.581Z,35.20
2023-03-25T20:23:43.162Z,36.78
2023-03-25T20:26:12.738Z,33.65
2023-03-25T20:28:42.342Z,33.85
2023-03-25T20:31:20.082Z,36.88
2023-03-25T20:33:51.487Z,38.78
2023-03-25T20:36:23.003Z,38.30
2023-03-25T20:38:57.519Z,23.95
2023-03-25T20:41:28.779Z,36.58
2023-03-25T20:43:58.377Z,33.33
2023-03-25T20:46:32.581Z,31.33
2023-03-25T20:49:03.548Z,26.85
2023-03-25T20:51:33.287Z,31.33
2023-03-25T20:54:02.884Z,22.02
2023-03-25T20:56:32.600Z,27.80
2023-03-25T20:59:02.484Z,15.77
2023-03-25T21:01:32.245Z,26.33
2023-03-25T21:04:03.746Z,22.70
2023-03-25T21:06:34.098Z,31.95
2023-03-25T21:09:07.584Z,31.95
2023-03-25T21:14:07.449Z,26.73
2023-03-25T21:16:37.086Z,28.80
2023-03-25T21:19:06.813Z,29.40
2023-03-25T21:21:37.492Z,32.08
2023-03-25T21:24:08.164Z,31.63
2023-03-25T21:26:37.844Z,28.38
2023-03-25T21:29:07.412Z,24.10
2023-03-25T21:31:37.151Z,32.78
2023-03-25T21:34:06.899Z,23.42
2023-03-25T21:36:36.591Z,29.08
2023-03-25T21:39:08.361Z,28.20
2023-03-25T21:41:38.332Z,31.63
2023-03-25T21:44:09.286Z,47.03
2023-03-25T21:46:39.222Z,45.85
2023-03-25T21:49:10.352Z,23.45
2023-03-25T21:51:45.638Z,26.55
2023-03-25T21:54:15.834Z,24.35
2023-03-25T21:56:45.400Z,43.55
2023-03-25T21:59:15.059Z,31.33
2023-03-25T22:01:44.625Z,25.35
2023-03-25T22:04:14.268Z,26.88
2023-03-25T22:06:43.864Z,37.45
2023-03-25T22:09:13.475Z,37.60
2023-03-25T22:11:43.050Z,23.45
2023-03-25T22:14:12.703Z,42.35
2023-03-25T22:16:42.573Z,28.80
2023-03-25T22:19:14.526Z,26.23
2023-03-25T22:21:44.666Z,20.58
2023-03-25T22:24:14.253Z,38.28
2023-03-25T22:26:44.639Z,20.73
2023-03-25T22:29:14.968Z,37.72
2023-03-25T22:31:44.720Z,26.23
2023-03-25T22:34:17.462Z,25.98
2023-03-25T22:36:51.274Z,25.00
2023-03-25T22:39:24.488Z,24.23
2023-03-25T22:41:54.884Z,24.35
2023-03-25T22:44:24.664Z,29.50
2023-03-25T22:46:54.391Z,30.13
2023-03-25T22:49:24.112Z,31.38
2023-03-25T22:51:54.106Z,39.13
2023-03-25T22:54:24.101Z,46.47
2023-03-25T22:56:53.720Z,27.92
2023-03-25T22:59:23.333Z,34.17
2023-03-25T23:01:53.096Z,30.65
2023-03-25T23:04:22.732Z,31.17
2023-03-25T23:07:00.903Z,23.02
2023-03-25T23:09:43.603Z,32.03
2023-03-25T23:12:38.980Z,29.33
2023-03-25T23:15:09.129Z,35.58
2023-03-25T23:17:38.779Z,31.50
2023-03-25T23:20:10.432Z,32.83
2023-03-25T23:22:40.093Z,51.78
2023-03-25T23:25:11.225Z,39.03
2023-03-25T23:27:40.940Z,39.08
2023-03-25T23:30:10.929Z,32.30
2023-03-25T23:32:42.075Z,28.02
2023-03-25T23:35:12.485Z,40.42
2023-03-25T23:37:43.030Z,34.20
2023-03-25T23:40:14.035Z,36.63
2023-03-25T23:42:43.642Z,34.47
2023-03-25T23:45:14.523Z,23.55
2023-03-25T23:47:44.161Z,45.22
2023-03-25T23:50:19.945Z,31.38
2023-03-25T23:52:49.484Z,29.40
2023-03-25T23:55:19.458Z,41.45
2023-03-25T23:57:49.087Z,35.17
